Time;durP1;ratioP1;P1;durP2;ratioP2;P2;SDS_P1;SDS_P2;PMS_P1;PMS_P2;Temp;Humidity;BMP_temperature;BMP_pressure;BME280_temperature;BME280_humidity;BME280_pressure;Samples;Min_cycle;Max_cycle;Signal;HPM_P1;HPM_P2
2022/07/31 00:01:13;;;;;;;;;0.00;0.00;;;;;24.25;46.81;101223.00;5021558;28;45757;-85
2022/07/31 00:03:38;;;;;;;;;1.00;1.00;;;;;24.12;47.32;101212.06;5002948;28;47259;-85
2022/07/31 00:06:04;;;;;;;;;0.25;0.00;;;;;24.07;47.29;101207.28;5020409;28;46130;-82
2022/07/31 00:08:30;;;;;;;;;1.00;1.00;;;;;24.17;47.46;101231.97;5002614;28;45749;-87
2022/07/31 00:10:55;;;;;;;;;0.00;0.00;;;;;24.11;47.10;101227.31;5020742;28;45571;-81
2022/07/31 00:13:21;;;;;;;;;0.00;0.00;;;;;24.10;47.54;101233.66;5020900;28;46446;-86
2022/07/31 00:15:46;;;;;;;;;1.00;0.00;;;;;24.07;47.33;101225.19;5022234;28;46033;-87
2022/07/31 00:18:12;;;;;;;;;0.50;0.50;;;;;24.08;47.57;101224.97;5022105;28;45689;-83
2022/07/31 00:20:37;;;;;;;;;1.00;0.00;;;;;24.02;47.42;101212.31;5022246;28;45881;-83
2022/07/31 00:23:02;;;;;;;;;0.50;0.50;;;;;24.08;47.51;101227.66;5021214;28;45746;-86
2022/07/31 00:25:29;;;;;;;;;0.00;0.00;;;;;23.98;48.01;101208.34;5003219;28;46240;-86
2022/07/31 00:28:05;;;;;;;;;0.00;0.00;;;;;24.03;47.80;101213.97;5020220;28;45690;-84
2022/07/31 00:30:30;;;;;;;;;0.00;0.00;;;;;23.97;47.54;101195.97;5007232;28;45794;-80
2022/07/31 00:32:56;;;;;;;;;0.25;0.25;;;;;24.04;47.19;101217.50;5025262;28;45741;-81
2022/07/31 00:35:21;;;;;;;;;1.00;1.00;;;;;24.00;47.70;101222.41;5022628;28;45533;-78
2022/07/31 00:37:47;;;;;;;;;0.00;0.00;;;;;23.99;47.81;101223.41;5021078;28;45831;-82
2022/07/31 00:40:14;;;;;;;;;0.50;0.50;;;;;23.86;48.12;101201.75;5019233;28;45666;-80
2022/07/31 00:42:40;;;;;;;;;0.00;0.00;;;;;23.87;47.87;101216.81;5020703;28;47237;-81
2022/07/31 00:45:07;;;;;;;;;0.00;0.00;;;;;23.90;48.21;101229.00;5003624;28;46667;-82
2022/07/31 00:47:32;;;;;;;;;0.00;0.00;;;;;23.88;48.53;101223.00;5018008;28;45740;-86
2022/07/31 00:49:58;;;;;;;;;0.00;0.00;;;;;23.86;48.49;101222.38;5016006;28;45702;-89
2022/07/31 00:52:24;;;;;;;;;1.00;1.00;;;;;23.82;48.23;101214.69;5015335;28;45722;-86
2022/07/31 00:54:49;;;;;;;;;0.00;0.00;;;;;23.75;48.50;101215.59;5017199;28;45797;-85
2022/07/31 00:57:15;;;;;;;;;1.00;1.00;;;;;23.67;48.28;101200.44;5016259;28;45693;-79
2022/07/31 00:59:46;;;;;;;;;0.00;0.00;;;;;23.69;48.96;101210.97;5015512;28;45983;-80
2022/07/31 01:02:11;;;;;;;;;0.25;0.25;;;;;23.68;48.47;101220.00;5015663;28;45854;-86
2022/07/31 01:04:37;;;;;;;;;0.25;0.00;;;;;23.59;49.67;101213.84;5015717;28;45761;-79
2022/07/31 01:07:02;;;;;;;;;1.00;1.00;;;;;23.59;48.86;101221.06;5015767;28;46327;-86
2022/07/31 01:09:28;;;;;;;;;0.25;0.25;;;;;23.46;49.69;101205.59;5015643;28;45724;-83
2022/07/31 01:12:08;;;;;;;;;0.00;0.00;;;;;23.47;49.48;101215.31;5009837;28;47950;-81
2022/07/31 01:14:44;;;;;;;;;0.00;0.00;;;;;23.43;49.42;101206.75;5016421;28;45993;-79
2022/07/31 01:17:11;;;;;;;;;0.25;0.25;;;;;23.48;49.70;101224.16;5000829;28;45979;-83
2022/07/31 01:19:43;;;;;;;;;1.25;1.00;;;;;23.47;49.30;101223.31;5016458;28;45720;-83
2022/07/31 01:22:33;;;;;;;;;0.00;0.00;;;;;23.50;49.48;101235.50;5016686;28;46942;-78
2022/07/31 01:25:30;;;;;;;;;0.00;0.00;;;;;23.46;49.19;101239.53;4998961;28;46904;-79
2022/07/31 01:28:05;;;;;;;;;0.00;0.00;;;;;23.41;49.63;101235.53;5014669;28;45670;-85
2022/07/31 01:30:35;;;;;;;;;1.00;0.00;;;;;23.35;50.26;101222.88;5016099;28;45600;-86
2022/07/31 01:33:11;;;;;;;;;0.00;0.00;;;;;23.35;49.89;101230.88;5015911;28;45809;-86
2022/07/31 01:35:44;;;;;;;;;0.00;0.00;;;;;23.29;50.33;101220.06;5015624;28;46000;-85
2022/07/31 01:38:24;;;;;;;;;1.00;1.00;;;;;23.31;50.07;101231.41;5015447;28;45792;-84
2022/07/31 01:40:56;;;;;;;;;0.00;0.00;;;;;23.27;50.64;101225.56;5015002;28;45756;-82
2022/07/31 01:43:31;;;;;;;;;0.00;0.00;;;;;23.21;50.07;101223.59;5015954;28;45976;-84
2022/07/31 01:45:59;;;;;;;;;0.00;0.00;;;;;23.17;50.82;101233.00;5016278;28;46322;-86
2022/07/31 01:48:26;;;;;;;;;0.00;0.00;;;;;23.14;50.85;101222.66;5017718;28;45847;-84
2022/07/31 01:50:54;;;;;;;;;0.00;0.00;;;;;23.15;50.74;101228.84;5015547;28;45828;-83
2022/07/31 01:53:23;;;;;;;;;0.00;0.00;;;;;23.06;50.68;101220.00;5015102;28;46661;-86
2022/07/31 01:55:54;;;;;;;;;0.00;0.00;;;;;23.06;51.10;101236.06;5014451;28;46260;-81
2022/07/31 01:58:26;;;;;;;;;1.25;0.00;;;;;22.96;51.69;101225.59;5014201;28;45970;-83
2022/07/31 02:00:57;;;;;;;;;0.00;0.00;;;;;22.88;51.01;101222.13;5014849;28;45659;-89
2022/07/31 02:03:24;;;;;;;;;1.00;1.00;;;;;22.79;51.97;101205.28;5006641;28;45722;-82
2022/07/31 02:05:50;;;;;;;;;1.00;1.00;;;;;22.85;51.88;101233.97;5014623;28;45616;-86
2022/07/31 02:08:17;;;;;;;;;0.00;0.00;;;;;22.82;51.54;101233.50;5014201;28;46163;-82
2022/07/31 02:10:46;;;;;;;;;0.00;0.00;;;;;22.65;52.26;101197.97;5015273;28;45650;-89
2022/07/31 02:13:19;;;;;;;;;0.00;0.00;;;;;22.66;52.84;101215.66;5015025;28;46475;-85
2022/07/31 02:15:46;;;;;;;;;0.25;0.25;;;;;22.73;52.10;101230.00;5015049;28;45632;-91
2022/07/31 02:18:12;;;;;;;;;1.75;1.00;;;;;22.71;52.86;101231.19;5014829;28;45720;-85
2022/07/31 02:20:41;;;;;;;;;1.00;1.00;;;;;22.65;52.41;101226.50;5014818;28;45584;-92
2022/07/31 02:23:07;;;;;;;;;1.50;1.50;;;;;22.50;53.03;101210.38;5014224;28;45882;-90
2022/07/31 02:25:35;;;;;;;;;2.00;2.00;;;;;22.55;53.29;101221.38;5013789;28;46081;-87
2022/07/31 02:28:06;;;;;;;;;2.00;2.00;;;;;22.46;52.88;101207.19;4995384;28;45735;-81
2022/07/31 02:30:34;;;;;;;;;1.75;1.75;;;;;22.55;53.10;101224.06;5014719;28;45769;-94
2022/07/31 02:33:02;;;;;;;;;3.00;3.00;;;;;22.52;53.40;101227.88;5012988;28;48467;-90
2022/07/31 02:35:29;;;;;;;;;1.75;1.75;;;;;22.50;53.29;101234.41;5021285;28;45595;-85
2022/07/31 02:37:55;;;;;;;;;2.25;2.25;;;;;22.49;53.37;101225.56;5023443;28;45319;-81
2022/07/31 02:40:24;;;;;;;;;3.00;2.00;;;;;22.41;53.72;101219.41;5027380;28;45849;-82
2022/07/31 02:42:50;;;;;;;;;1.75;1.75;;;;;22.42;53.47;101226.41;5027857;28;45865;-82
2022/07/31 02:45:22;;;;;;;;;1.00;1.00;;;;;22.34;53.82;101216.59;5023683;28;46496;-81
2022/07/31 02:47:47;;;;;;;;;1.00;1.00;;;;;22.36;54.09;101222.59;5023447;28;45586;-79
2022/07/31 02:50:15;;;;;;;;;2.00;1.00;;;;;22.35;53.66;101212.91;5001065;28;46165;-83
2022/07/31 02:52:42;;;;;;;;;1.25;1.00;;;;;22.33;53.85;101209.59;5019542;28;45575;-87
2022/07/31 02:55:08;;;;;;;;;1.00;1.00;;;;;22.27;54.22;101217.44;4988617;28;48390;-83
2022/07/31 02:57:34;;;;;;;;;2.50;1.00;;;;;22.18;55.08;101221.97;5007008;28;45773;-81
2022/07/31 03:00:01;;;;;;;;;0.50;0.50;;;;;22.12;54.58;101214.63;5020395;28;45684;-85
2022/07/31 03:02:28;;;;;;;;;0.00;0.00;;;;;22.05;54.79;101208.28;5000381;28;45838;-83
2022/07/31 03:04:53;;;;;;;;;0.75;0.75;;;;;21.99;55.51;101209.81;5016725;28;46308;-78
2022/07/31 03:07:19;;;;;;;;;1.00;1.00;;;;;21.96;55.30;101211.97;5014784;28;45680;-82
2022/07/31 03:09:46;;;;;;;;;1.00;1.00;;;;;21.89;55.36;101202.94;5014293;28;45908;-83
2022/07/31 03:12:12;;;;;;;;;1.50;1.50;;;;;21.92;56.23;101206.09;5013624;28;45768;-86
2022/07/31 03:14:38;;;;;;;;;2.00;2.00;;;;;21.96;55.45;101210.16;4995857;28;46174;-80
2022/07/31 03:17:05;;;;;;;;;2.75;2.75;;;;;21.88;55.66;101206.59;4996403;28;45757;-88
2022/07/31 03:19:31;;;;;;;;;3.50;2.25;;;;;21.86;55.76;101208.63;5015194;28;45681;-83
2022/07/31 03:21:58;;;;;;;;;1.00;1.00;;;;;21.82;56.33;101209.94;5013529;28;45899;-86
2022/07/31 03:24:24;;;;;;;;;3.50;3.25;;;;;21.74;56.39;101198.28;5014577;28;45793;-79
2022/07/31 03:26:50;;;;;;;;;3.00;2.00;;;;;21.79;56.73;101203.13;5015000;28;45543;-87
2022/07/31 03:29:16;;;;;;;;;2.75;2.75;;;;;21.80;56.09;101203.94;5015116;28;45721;-85
2022/07/31 03:31:41;;;;;;;;;3.50;3.00;;;;;21.67;56.50;101188.44;5012473;28;47910;-85
2022/07/31 03:34:06;;;;;;;;;3.00;2.00;;;;;21.71;56.69;101195.94;5016788;28;45693;-89
2022/07/31 03:36:32;;;;;;;;;3.00;3.00;;;;;21.63;56.42;101185.28;5015278;28;46076;-82
2022/07/31 03:38:58;;;;;;;;;3.50;3.50;;;;;21.68;56.92;101200.78;5013095;28;45690;-86
2022/07/31 03:41:24;;;;;;;;;4.00;3.75;;;;;21.63;56.91;101201.28;5012850;28;45598;-83
2022/07/31 03:43:50;;;;;;;;;4.25;4.00;;;;;21.59;57.26;101191.91;5013915;28;46902;-78
2022/07/31 03:46:18;;;;;;;;;5.00;4.00;;;;;21.50;56.79;101174.25;5012860;28;45927;-81
2022/07/31 03:48:47;;;;;;;;;4.00;3.00;;;;;21.52;57.18;101182.94;5017330;28;45879;-89
2022/07/31 03:51:13;;;;;;;;;3.25;3.25;;;;;21.49;57.42;101191.25;5012948;28;46754;-83
2022/07/31 03:53:38;;;;;;;;;5.00;5.00;;;;;21.45;57.20;101191.75;5013054;28;45709;-88
2022/07/31 03:56:05;;;;;;;;;4.25;4.25;;;;;21.40;57.23;101196.75;5012700;28;45690;-89
2022/07/31 03:58:32;;;;;;;;;6.00;6.00;;;;;21.33;57.96;101191.25;5012497;28;45664;-87
2022/07/31 04:00:58;;;;;;;;;5.75;5.25;;;;;21.32;57.94;101198.41;5012651;28;45648;-84
2022/07/31 04:03:29;;;;;;;;;6.00;5.50;;;;;21.32;57.79;101195.72;5015224;28;45847;-85
2022/07/31 04:05:55;;;;;;;;;5.00;5.00;;;;;21.25;57.61;101189.41;5016666;28;45684;-86
2022/07/31 04:08:20;;;;;;;;;7.75;6.75;;;;;21.21;58.02;101181.91;5017966;28;45836;-87
2022/07/31 04:10:46;;;;;;;;;9.50;8.00;;;;;21.31;58.01;101203.91;5021160;28;46342;-82
2022/07/31 04:13:11;;;;;;;;;8.50;7.50;;;;;21.31;57.44;101199.41;5022759;28;45611;-84
2022/07/31 04:15:37;;;;;;;;;9.25;9.25;;;;;21.33;57.86;101186.75;5024725;28;45657;-80
2022/07/31 04:18:02;;;;;;;;;13.75;9.00;;;;;21.27;57.90;101181.22;5024354;28;45625;-86
2022/07/31 04:20:28;;;;;;;;;10.25;10.25;;;;;21.24;57.99;101176.22;5024859;28;45823;-81
2022/07/31 04:22:53;;;;;;;;;9.50;8.00;;;;;21.31;57.96;101187.91;5024416;28;45523;-80
2022/07/31 04:25:19;;;;;;;;;11.75;11.00;;;;;21.25;58.05;101185.91;5024096;28;45606;-84
2022/07/31 04:27:44;;;;;;;;;10.50;10.25;;;;;21.17;57.96;101185.88;5025204;28;45908;-79
2022/07/31 04:30:30;;;;;;;;;10.50;10.50;;;;;21.20;58.33;101197.06;5029675;28;47017;-83
2022/07/31 04:32:58;;;;;;;;;10.50;9.50;;;;;21.13;58.14;101196.00;5031376;28;45273;-78
2022/07/31 04:35:23;;;;;;;;;8.50;7.50;;;;;21.09;58.73;101210.66;5012366;28;45674;-79
2022/07/31 04:37:49;;;;;;;;;6.75;5.75;;;;;21.05;58.69;101189.84;5009540;28;45244;-83
2022/07/31 04:40:14;;;;;;;;;5.75;5.25;;;;;21.15;58.67;101206.53;5026191;28;45663;-79
2022/07/31 04:42:40;;;;;;;;;8.25;6.25;;;;;21.15;58.85;101210.03;5009571;28;47167;-79
2022/07/31 04:45:06;;;;;;;;;7.00;6.25;;;;;21.16;59.03;101205.56;5009169;28;45668;-78
2022/07/31 04:47:31;;;;;;;;;5.00;4.75;;;;;21.13;58.82;101190.69;5018292;28;45666;-83
2022/07/31 04:49:57;;;;;;;;;6.50;6.25;;;;;21.23;58.49;101206.56;5024677;28;47011;-78
2022/07/31 04:52:23;;;;;;;;;6.50;6.00;;;;;21.15;58.64;101182.56;5005411;28;47133;-82
2022/07/31 04:54:49;;;;;;;;;6.50;6.00;;;;;21.24;58.82;101194.91;5026216;28;45612;-78
2022/07/31 04:57:17;;;;;;;;;7.00;6.00;;;;;21.18;58.49;101177.72;5025259;28;45504;-80
2022/07/31 04:59:43;;;;;;;;;7.50;6.75;;;;;21.23;58.42;101195.88;5016370;28;47697;-82
2022/07/31 05:02:08;;;;;;;;;2.50;2.50;;;;;21.29;58.36;101206.72;5025091;28;46084;-86
2022/07/31 05:04:40;;;;;;;;;6.00;5.75;;;;;21.28;58.62;101207.72;5007114;28;45610;-82
2022/07/31 05:07:05;;;;;;;;;6.50;6.00;;;;;21.19;58.56;101194.56;5024565;28;45634;-81
2022/07/31 05:09:34;;;;;;;;;5.75;5.75;;;;;21.29;58.63;101200.56;5024075;28;46459;-84
2022/07/31 05:12:00;;;;;;;;;5.50;5.50;;;;;21.32;58.82;101205.59;5008303;28;46288;-78
2022/07/31 05:14:25;;;;;;;;;7.75;7.50;;;;;21.34;58.80;101200.91;5021559;28;45733;-82
2022/07/31 05:16:51;;;;;;;;;5.75;5.50;;;;;21.32;58.75;101198.41;5020700;28;45701;-82
2022/07/31 05:19:16;;;;;;;;;5.00;5.00;;;;;21.39;58.76;101201.25;5019358;28;45646;-80
2022/07/31 05:21:43;;;;;;;;;5.00;4.00;;;;;21.36;58.54;101188.25;5023034;28;45622;-81
2022/07/31 05:24:10;;;;;;;;;5.75;5.25;;;;;21.41;58.87;101207.25;5023153;28;45430;-82
2022/07/31 05:26:37;;;;;;;;;8.25;6.00;;;;;21.33;58.72;101196.56;5023134;28;45657;-84
2022/07/31 05:29:03;;;;;;;;;6.00;6.00;;;;;21.43;58.94;101209.78;5022650;28;46501;-82
2022/07/31 05:31:29;;;;;;;;;5.25;5.25;;;;;21.41;58.84;101196.59;5022254;28;45774;-79
2022/07/31 05:33:56;;;;;;;;;4.50;4.50;;;;;21.45;58.58;101211.25;5023136;28;45713;-83
2022/07/31 05:36:21;;;;;;;;;4.00;4.00;;;;;21.35;58.64;101178.59;5021658;28;45832;-85
2022/07/31 05:38:47;;;;;;;;;4.00;4.00;;;;;21.37;58.95;101186.44;5021003;28;45837;-88
2022/07/31 05:41:13;;;;;;;;;4.50;3.75;;;;;21.39;58.91;101181.75;5020968;28;46427;-80
2022/07/31 05:43:39;;;;;;;;;3.75;3.75;;;;;21.48;59.11;101197.63;5021987;28;45500;-87
2022/07/31 05:46:05;;;;;;;;;5.00;3.75;;;;;21.46;59.14;101196.09;5021266;28;45908;-78
2022/07/31 05:48:31;;;;;;;;;3.00;3.00;;;;;21.40;58.48;101188.75;5019945;28;47138;-80
2022/07/31 05:50:57;;;;;;;;;3.25;3.25;;;;;21.42;58.56;101205.44;5002675;28;47272;-83
2022/07/31 05:53:23;;;;;;;;;3.50;3.50;;;;;21.39;58.66;101205.75;5020959;28;45702;-83
2022/07/31 05:55:50;;;;;;;;;3.50;3.25;;;;;21.32;58.81;101198.41;5002246;28;46008;-83
2022/07/31 05:58:17;;;;;;;;;4.50;4.50;;;;;21.39;58.42;101213.75;5020765;28;46150;-82
2022/07/31 06:00:44;;;;;;;;;5.00;5.00;;;;;21.25;58.34;101202.75;5020836;28;46042;-81
2022/07/31 06:03:11;;;;;;;;;5.25;4.00;;;;;21.31;58.08;101218.09;5021956;28;45836;-80
2022/07/31 06:05:38;;;;;;;;;4.00;4.00;;;;;21.31;58.52;101203.91;5027585;28;45623;-79
2022/07/31 06:08:03;;;;;;;;;3.75;3.75;;;;;21.38;58.77;101220.09;5018914;28;47029;-85
2022/07/31 06:10:29;;;;;;;;;3.50;3.00;;;;;21.36;58.39;101204.25;5019867;28;45690;-89
2022/07/31 06:12:55;;;;;;;;;4.50;4.00;;;;;21.37;58.49;101197.94;5021999;28;45686;-85
2022/07/31 06:15:20;;;;;;;;;4.75;3.75;;;;;21.43;58.63;101186.59;5022321;28;45732;-82
2022/07/31 06:17:46;;;;;;;;;3.00;2.00;;;;;21.48;57.99;101186.94;5004352;28;47451;-82
2022/07/31 06:20:13;;;;;;;;;4.00;4.00;;;;;21.54;58.08;101204.94;5022263;28;45484;-84
2022/07/31 06:22:39;;;;;;;;;4.75;4.75;;;;;21.41;58.10;101201.94;5009543;28;45619;-84
2022/07/31 06:25:07;;;;;;;;;5.00;4.25;;;;;21.44;58.55;101209.59;5026236;28;45770;-83
2022/07/31 06:27:33;;;;;;;;;5.50;5.25;;;;;21.42;58.19;101229.44;5023518;28;45727;-83
2022/07/31 06:29:59;;;;;;;;;4.75;4.75;;;;;21.34;57.81;101217.75;5022034;28;46156;-88
2022/07/31 06:32:24;;;;;;;;;4.00;4.00;;;;;21.31;58.35;101190.59;5006508;28;45681;-79
2022/07/31 06:34:49;;;;;;;;;5.00;5.00;;;;;21.35;58.64;101219.41;5023434;28;45649;-84
2022/07/31 06:37:15;;;;;;;;;5.75;4.75;;;;;21.43;58.45;101218.56;5007507;28;47526;-80
2022/07/31 06:39:40;;;;;;;;;6.25;5.25;;;;;21.47;58.10;101235.09;5010553;28;46382;-78
2022/07/31 06:42:06;;;;;;;;;4.00;4.00;;;;;21.45;58.07;101213.09;5032156;28;45277;-77
2022/07/31 06:44:53;;;;;;;;;4.00;4.00;;;;;21.40;58.27;101205.59;5033117;28;45046;-81
2022/07/31 06:47:22;;;;;;;;;4.00;3.00;;;;;21.52;58.06;101222.09;5014756;28;47313;-82
2022/07/31 06:49:47;;;;;;;;;5.00;4.75;;;;;21.49;58.09;101212.59;5022947;28;45576;-86
2022/07/31 06:52:13;;;;;;;;;5.50;5.50;;;;;21.57;57.83;101217.94;5026928;28;45741;-82
2022/07/31 06:54:38;;;;;;;;;4.75;4.75;;;;;21.57;57.42;101211.78;5012151;28;45622;-87
2022/07/31 06:57:04;;;;;;;;;5.50;5.00;;;;;21.60;57.49;101222.09;5016940;28;46574;-83
2022/07/31 06:59:29;;;;;;;;;5.00;4.00;;;;;21.65;57.42;101222.44;5018989;28;46012;-84
2022/07/31 07:01:55;;;;;;;;;6.75;5.00;;;;;21.65;57.27;101217.09;5018431;28;46035;-82
2022/07/31 07:04:20;;;;;;;;;5.75;4.75;;;;;21.65;57.06;101211.75;5019755;28;45915;-83
2022/07/31 07:06:46;;;;;;;;;4.00;4.00;;;;;21.74;57.10;101235.63;5021177;28;46590;-80
2022/07/31 07:09:11;;;;;;;;;6.75;6.75;;;;;21.73;56.46;101238.47;5020961;28;45690;-83
2022/07/31 07:11:38;;;;;;;;;4.75;4.00;;;;;21.65;57.07;101231.28;5017561;28;45525;-85
2022/07/31 07:14:04;;;;;;;;;5.00;5.00;;;;;21.66;57.03;101230.28;5017404;28;45932;-87
2022/07/31 07:16:29;;;;;;;;;6.00;5.00;;;;;21.61;57.03;101226.44;5015082;28;45975;-83
2022/07/31 07:18:55;;;;;;;;;4.75;4.75;;;;;21.60;57.48;101230.94;5001454;28;48061;-87
2022/07/31 07:21:20;;;;;;;;;4.75;4.75;;;;;21.55;57.29;101225.25;5022521;28;45587;-78
2022/07/31 07:23:46;;;;;;;;;3.00;3.00;;;;;21.55;57.14;101219.94;5001385;28;45596;-80
2022/07/31 07:26:11;;;;;;;;;6.00;5.50;;;;;21.56;57.19;101221.59;5017549;28;45741;-78
2022/07/31 07:28:37;;;;;;;;;4.75;4.50;;;;;21.66;56.82;101251.63;4999190;28;46962;-79
2022/07/31 07:31:03;;;;;;;;;5.00;4.00;;;;;21.66;56.95;101251.63;5014637;28;46102;-80
2022/07/31 07:33:30;;;;;;;;;4.25;4.25;;;;;21.68;56.54;101249.63;5014488;28;46278;-79
2022/07/31 07:35:57;;;;;;;;;4.00;4.00;;;;;21.72;56.75;101245.63;4997278;28;46581;-82
2022/07/31 07:38:22;;;;;;;;;6.75;5.75;;;;;21.75;56.06;101234.59;5019343;28;45504;-83
2022/07/31 07:40:48;;;;;;;;;6.00;5.50;;;;;21.81;56.03;101243.78;5020887;28;45888;-76
2022/07/31 07:43:13;;;;;;;;;4.00;4.00;;;;;21.79;56.39;101229.78;5019418;28;45693;-83
2022/07/31 07:45:40;;;;;;;;;4.50;4.00;;;;;21.80;56.27;101228.81;5020966;28;46493;-84
2022/07/31 07:48:05;;;;;;;;;5.75;5.00;;;;;21.86;56.14;101240.66;5032377;28;46043;-78
2022/07/31 07:50:31;;;;;;;;;6.25;6.00;;;;;21.89;55.76;101240.28;5022359;28;45733;-84
2022/07/31 07:52:56;;;;;;;;;2.00;1.00;;;;;21.91;55.51;101246.31;5023028;28;45908;-88
2022/07/31 07:55:22;;;;;;;;;6.00;5.00;;;;;21.78;55.50;101214.78;5010125;28;47527;-82
2022/07/31 07:57:47;;;;;;;;;5.00;5.00;;;;;21.86;55.79;101237.97;5024726;28;46260;-89
2022/07/31 08:00:13;;;;;;;;;6.00;6.00;;;;;21.96;55.54;101244.00;4996375;28;45698;-90
2022/07/31 08:02:41;;;;;;;;;7.00;5.00;;;;;21.94;55.46;101240.63;5027429;28;45636;-93
2022/07/31 08:05:07;;;;;;;;;6.00;6.00;;;;;21.86;55.31;101235.31;5026311;28;45708;-92
2022/07/31 08:07:35;;;;;;;;;5.00;4.75;;;;;22.01;55.71;101255.00;5022505;28;45697;-89
2022/07/31 08:10:02;;;;;;;;;6.00;5.00;;;;;22.01;55.36;101255.84;5017361;28;45932;-93
2022/07/31 08:12:27;;;;;;;;;7.00;6.00;;;;;22.02;55.62;101251.34;5019586;28;45820;-92
2022/07/31 08:14:53;;;;;;;;;6.00;6.00;;;;;21.96;55.34;101238.66;5020233;28;45828;-89
2022/07/31 08:17:19;;;;;;;;;6.00;6.00;;;;;21.97;55.67;101243.81;5020038;28;45643;-92
2022/07/31 08:19:45;;;;;;;;;2.00;1.25;;;;;22.03;55.31;101237.81;5020272;28;45748;-86
2022/07/31 08:22:11;;;;;;;;;4.75;4.75;;;;;;;;5019251;28;45688;-92
2022/07/31 08:24:36;;;;;;;;;5.00;5.00;;;;;22.24;55.33;101252.50;5020595;28;45794;-90
2022/07/31 08:29:46;;;;;;;;;5.25;5.00;;;;;22.33;55.18;101248.81;5019868;28;45813;-89
2022/07/31 08:32:12;;;;;;;;;5.50;4.75;;;;;22.33;55.11;101248.81;5019910;28;45841;-93
2022/07/31 08:34:38;;;;;;;;;5.00;5.00;;;;;22.34;54.48;101245.13;5001469;28;47939;-84
2022/07/31 08:37:08;;;;;;;;;5.00;5.00;;;;;22.38;54.41;101244.63;5019215;28;46251;-93
2022/07/31 08:39:35;;;;;;;;;5.75;5.00;;;;;22.32;55.10;101242.63;5007117;28;45558;-91
2022/07/31 08:42:05;;;;;;;;;6.00;5.00;;;;;22.39;55.02;101245.47;5026776;28;45709;-93
2022/07/31 08:44:32;;;;;;;;;5.50;5.00;;;;;22.31;54.61;101234.78;5025842;28;45781;-87
2022/07/31 08:46:58;;;;;;;;;6.00;5.75;;;;;22.34;54.58;101235.28;5021636;28;45737;-93
2022/07/31 08:49:28;;;;;;;;;6.75;6.75;;;;;22.42;55.03;101237.09;5009371;28;45753;-87
2022/07/31 08:51:54;;;;;;;;;5.00;5.00;;;;;22.49;54.59;101240.75;5022762;28;45660;-86
2022/07/31 08:54:22;;;;;;;;;6.25;5.25;;;;;22.54;54.55;101241.06;5032614;28;45965;-78
2022/07/31 08:56:51;;;;;;;;;6.25;5.75;;;;;22.58;54.45;101237.88;5029467;28;46078;-85
2022/07/31 08:59:17;;;;;;;;;6.00;5.00;;;;;22.63;54.28;101249.88;5030389;28;45839;-77
2022/07/31 09:01:43;;;;;;;;;6.75;6.00;;;;;22.55;54.40;101235.56;5029044;28;45884;-92
2022/07/31 09:04:08;;;;;;;;;7.00;6.00;;;;;22.53;54.41;101231.38;5006019;28;47852;-82
2022/07/31 09:06:35;;;;;;;;;6.00;6.00;;;;;22.64;54.22;101236.38;5025017;28;45452;-82
2022/07/31 09:09:01;;;;;;;;;6.00;5.00;;;;;22.74;54.20;101242.38;5007154;28;45694;-78
2022/07/31 09:11:27;;;;;;;;;6.00;5.75;;;;;22.71;54.01;101241.88;5025268;28;45778;-77
2022/07/31 09:14:02;;;;;;;;;6.50;6.50;;;;;22.70;53.87;101241.03;5024761;28;46608;-80
2022/07/31 09:16:57;;;;;;;;;6.75;6.00;;;;;22.61;53.76;101220.69;5015160;28;46548;-84
2022/07/31 09:19:35;;;;;;;;;7.00;6.00;;;;;22.65;53.73;101235.38;4941190;28;45614;-80
2022/07/31 09:22:01;;;;;;;;;5.75;5.00;;;;;22.58;53.89;101232.53;4938809;28;45696;-80
2022/07/31 09:24:29;;;;;;;;;6.75;6.75;;;;;22.64;53.53;101230.19;4938514;28;45784;-79
2022/07/31 09:27:05;;;;;;;;;8.00;7.25;;;;;22.62;53.60;101245.56;4925720;28;45908;-85
2022/07/31 09:29:39;;;;;;;;;5.25;5.00;;;;;22.59;53.96;101228.03;4919973;28;45731;-78
2022/07/31 09:32:17;;;;;;;;;7.00;7.00;;;;;22.58;53.95;101226.38;4921399;28;45737;-79
2022/07/31 09:34:44;;;;;;;;;7.00;6.00;;;;;22.66;53.49;101237.03;4921290;28;46874;-78
2022/07/31 09:37:09;;;;;;;;;7.25;6.25;;;;;22.64;53.73;101238.19;4918469;28;46355;-85
2022/07/31 09:39:36;;;;;;;;;8.75;7.25;;;;;22.56;53.82;101221.19;4926213;28;45838;-86
2022/07/31 09:42:02;;;;;;;;;7.00;7.00;;;;;22.59;53.49;101222.69;4929748;28;45933;-84
2022/07/31 09:44:44;;;;;;;;;7.00;6.75;;;;;22.68;53.71;101237.69;4917183;28;46630;-88
2022/07/31 09:47:27;;;;;;;;;8.25;7.00;;;;;22.67;53.60;101229.88;4920903;28;46717;-87
2022/07/31 09:49:57;;;;;;;;;6.50;6.50;;;;;22.77;53.50;101230.53;4922274;28;45814;-86
2022/07/31 09:52:24;;;;;;;;;6.50;6.00;;;;;22.73;53.53;101232.69;4919438;28;45971;-80
2022/07/31 09:55:12;;;;;;;;;6.00;6.00;;;;;22.82;53.08;101236.19;4930503;28;45996;-82
2022/07/31 09:57:51;;;;;;;;;7.00;6.75;;;;;22.86;53.45;101249.00;5017840;28;45790;-78
2022/07/31 10:00:16;;;;;;;;;8.75;6.25;;;;;22.86;52.80;101245.50;5006570;28;45758;-84
2022/07/31 10:02:42;;;;;;;;;7.00;7.00;;;;;22.88;52.78;101241.66;5024438;28;45730;-84
2022/07/31 10:05:11;;;;;;;;;5.50;5.50;;;;;22.81;53.33;101219.31;5024482;28;45464;-85
2022/07/31 10:07:37;;;;;;;;;6.00;5.75;;;;;22.96;52.72;101230.94;5022765;28;45512;-82
2022/07/31 10:10:06;;;;;;;;;3.00;3.00;;;;;22.94;52.89;101230.25;5026253;28;45693;-84
2022/07/31 10:12:33;;;;;;;;;7.00;6.50;;;;;23.02;52.77;101237.41;5025949;28;45562;-79
2022/07/31 10:15:08;;;;;;;;;6.00;6.00;;;;;23.07;52.93;101240.41;5012912;28;47679;-91
2022/07/31 10:17:38;;;;;;;;;7.75;7.25;;;;;23.02;52.55;101218.72;5023477;28;45690;-82
2022/07/31 10:20:06;;;;;;;;;7.50;7.50;;;;;23.11;52.62;101227.50;5007348;28;45777;-79
2022/07/31 10:22:43;;;;;;;;;8.00;6.50;;;;;23.19;52.41;101233.66;5025307;28;45880;-77
2022/07/31 10:25:12;;;;;;;;;7.25;7.00;;;;;23.21;52.54;101242.31;5004983;28;46609;-81
2022/07/31 10:27:39;;;;;;;;;6.25;5.25;;;;;23.21;52.62;101236.97;5024605;28;46063;-81
2022/07/31 10:30:06;;;;;;;;;5.00;5.00;;;;;23.27;52.39;101238.09;5028550;28;45773;-82
2022/07/31 10:32:32;;;;;;;;;8.00;7.25;;;;;23.24;51.70;101215.25;5017110;28;45688;-78
2022/07/31 10:35:02;;;;;;;;;7.00;6.75;;;;;23.29;52.09;101220.91;5029381;28;46998;-81
2022/07/31 10:37:37;;;;;;;;;6.50;5.00;;;;;23.25;51.78;101208.88;5011987;28;47968;-82
2022/07/31 10:40:07;;;;;;;;;7.00;6.00;;;;;23.33;52.17;101227.53;5023944;28;45780;-83
2022/07/31 10:42:51;;;;;;;;;7.00;6.50;;;;;23.38;52.17;101235.88;5025143;28;45703;-80
2022/07/31 10:45:17;;;;;;;;;6.00;5.50;;;;;23.39;52.11;101221.50;5025146;28;46714;-80
2022/07/31 10:48:02;;;;;;;;;7.75;6.75;;;;;23.43;51.65;101220.13;5033643;28;46474;-80
2022/07/31 10:50:29;;;;;;;;;6.25;6.25;;;;;23.46;52.14;101227.00;5026911;28;45584;-81
2022/07/31 10:53:10;;;;;;;;;6.50;6.00;;;;;23.48;51.38;101208.09;5024641;28;45725;-82
2022/07/31 10:55:36;;;;;;;;;5.00;4.50;;;;;23.54;51.19;101202.00;5009715;28;46513;-86
2022/07/31 10:58:21;;;;;;;;;6.25;6.00;;;;;23.61;51.44;101203.81;5007505;28;47193;-80
2022/07/31 11:00:47;;;;;;;;;7.00;7.00;;;;;23.61;51.39;101194.94;5026857;28;45717;-80
2022/07/31 11:03:21;;;;;;;;;5.25;4.75;;;;;23.70;51.23;101212.59;5023450;28;45641;-86
2022/07/31 11:05:53;;;;;;;;;6.25;5.25;;;;;23.76;50.72;101207.38;5026474;28;45607;-79
2022/07/31 11:08:20;;;;;;;;;5.25;4.75;;;;;23.84;50.72;101210.00;5024899;28;46221;-86
2022/07/31 11:10:52;;;;;;;;;7.75;6.50;;;;;23.89;50.77;101208.59;5025856;28;45764;-81
2022/07/31 11:13:20;;;;;;;;;7.00;7.00;;;;;23.88;50.78;101194.38;5021756;28;45936;-82
2022/07/31 11:15:46;;;;;;;;;6.00;6.00;;;;;23.94;50.80;101199.03;5023704;28;46652;-80
2022/07/31 11:18:21;;;;;;;;;6.00;6.00;;;;;24.04;50.58;101198.75;5007630;28;45707;-82
2022/07/31 11:21:03;;;;;;;;;7.25;6.25;;;;;24.01;50.50;101188.41;5004514;28;45806;-80
2022/07/31 11:23:32;;;;;;;;;7.25;7.00;;;;;24.04;50.45;101186.19;5001743;28;46048;-78
2022/07/31 11:26:00;;;;;;;;;6.00;6.00;;;;;24.19;50.32;101203.16;5019361;28;45999;-80
2022/07/31 11:28:26;;;;;;;;;5.00;4.25;;;;;24.17;50.22;101178.41;5021015;28;45709;-77
2022/07/31 11:31:05;;;;;;;;;6.00;5.75;;;;;24.34;49.72;101207.69;5019656;28;45670;-82